SBF weather

Sardeh Band Airport
Sardeh Band, Ghazni Province, Afghanistan

Public forecast

Using degrees Celsius for public forecast. Weather courtesy of forecast.io.

METAR (pilot weather report)

Closest report is Hamid Karzai International Airport, 80.1 nm (148.3 km) NNE. Retrieved 2019/08/23 22:50 UTC (12 minutes ago):

OAKB 232250Z VRB01KT 8000 NSC 19/09 Q1015 NOSIG RMK A3000 BLU BLU

TAF (pilot weather forecast)

Closest forecast is Hamid Karzai International Airport, 80.1 nm (148.3 km) NNE. Retrieved 2019/08/23 18:05 UTC (5 hours ago):

TAF OAKB 231705Z 2318/2418 VRB02KT 9999 FEW010 BKN140 BECMG 2319/2321 CAVOK TEMPO 2400/2404 7000 BECMG 2406/2408 06010KT SCT080 PROB30 TEMPO 2410/2414 02020G30KT 8000 VCTS SCT050CB BKN100